Time;durP1;ratioP1;P1;durP2;ratioP2;P2;SDS_P1;SDS_P2;PMS_P1;PMS_P2;Temp;Humidity;BMP_temperature;BMP_pressure;BME280_temperature;BME280_humidity;BME280_pressure;Samples;Min_cycle;Max_cycle;Signal;HPM_P1;HPM_P2
2021/04/06 04:11:06;;;;;;;1.53;1.53;;;0.30;99.90;;;;;;5551834;23;20230;-77
2021/04/06 04:13:33;;;;;;;1.50;1.50;;;0.40;99.90;;;;;;4919564;29;20211;-77
2021/04/06 04:16:00;;;;;;;1.40;1.40;;;0.40;99.90;;;;;;4918530;29;20237;-77
2021/04/06 04:18:27;;;;;;;1.50;1.50;;;0.40;99.90;;;;;;4919803;29;20278;-78
2021/04/06 04:20:54;;;;;;;1.50;1.50;;;;;;;;;;4911865;29;20295;-75
2021/04/06 04:23:21;;;;;;;1.50;1.50;;;0.50;99.90;;;;;;4898449;29;20633;-76
2021/04/06 04:25:48;;;;;;;1.50;1.50;;;0.50;99.90;;;;;;4898702;29;20263;-73
2021/04/06 04:28:15;;;;;;;1.40;1.40;;;0.60;99.90;;;;;;4898444;29;20211;-76
2021/04/06 04:30:47;;;;;;;1.60;1.60;;;0.70;99.90;;;;;;4898425;29;20226;-73
2021/04/06 04:33:14;;;;;;;1.50;1.50;;;0.60;99.90;;;;;;4898018;29;20322;-75
2021/04/06 04:35:41;;;;;;;1.63;1.63;;;0.60;99.90;;;;;;4897804;29;20243;-74
2021/04/06 04:38:08;;;;;;;1.43;1.43;;;0.50;99.90;;;;;;4898048;29;20660;-74
2021/04/06 04:40:36;;;;;;;1.50;1.50;;;0.50;99.90;;;;;;4898164;29;20288;-75
2021/04/06 04:43:03;;;;;;;1.60;1.60;;;0.50;99.90;;;;;;4897996;29;20263;-74
2021/04/06 04:45:31;;;;;;;1.47;1.47;;;0.60;99.90;;;;;;4897766;29;20203;-74
2021/04/06 04:47:58;;;;;;;1.70;1.70;;;0.60;99.90;;;;;;4898051;29;20211;-74
2021/04/06 04:50:26;;;;;;;1.77;1.77;;;0.50;99.90;;;;;;4897910;29;20207;-74
2021/04/06 04:52:53;;;;;;;1.63;1.63;;;0.60;99.90;;;;;;4897686;29;20261;-74
2021/04/06 04:55:21;;;;;;;1.57;1.57;;;0.60;99.90;;;;;;4897716;29;20215;-74
2021/04/06 04:57:52;;;;;;;1.40;1.40;;;0.70;99.90;;;;;;4897858;29;20214;-74
2021/04/06 05:00:20;;;;;;;1.40;1.40;;;0.50;99.90;;;;;;4897599;29;20211;-74
2021/04/06 05:02:48;;;;;;;1.63;1.63;;;0.60;99.90;;;;;;4897467;29;20208;-74
2021/04/06 05:05:16;;;;;;;1.33;1.33;;;0.60;99.90;;;;;;4896447;29;20208;-74
2021/04/06 05:07:45;;;;;;;1.63;1.63;;;0.70;99.90;;;;;;4900480;29;20218;-74
2021/04/06 05:10:14;;;;;;;1.30;1.30;;;0.70;99.90;;;;;;4903761;29;20263;-74
2021/04/06 05:12:41;;;;;;;1.60;1.60;;;0.80;99.90;;;;;;4896534;29;20227;-74
2021/04/06 05:15:09;;;;;;;1.40;1.40;;;0.80;99.90;;;;;;4896416;29;20211;-74
2021/04/06 05:17:37;;;;;;;1.40;1.40;;;0.90;99.90;;;;;;4896779;29;20207;-74
2021/04/06 05:20:06;;;;;;;1.50;1.50;;;0.90;99.90;;;;;;4896866;29;20573;-75
2021/04/06 05:22:33;;;;;;;1.40;1.40;;;0.90;99.90;;;;;;4896552;29;20605;-74
2021/04/06 05:25:00;;;;;;;1.57;1.57;;;0.90;99.90;;;;;;4896375;29;20219;-74
2021/04/06 05:27:27;;;;;;;1.30;1.30;;;1.00;99.90;;;;;;4896447;29;20665;-75
2021/04/06 05:29:54;;;;;;;1.60;1.60;;;1.10;99.90;;;;;;4896345;29;20635;-74
2021/04/06 05:32:21;;;;;;;1.40;1.40;;;1.30;99.90;;;;;;4896103;29;20704;-74
2021/04/06 05:34:48;;;;;;;1.60;1.60;;;1.40;99.90;;;;;;4896344;29;20207;-75
2021/04/06 05:37:16;;;;;;;1.60;1.60;;;1.50;99.90;;;;;;4896366;29;20665;-74
2021/04/06 05:39:42;;;;;;;1.30;1.30;;;1.50;99.90;;;;;;4896437;29;20267;-74
2021/04/06 05:42:12;;;;;;;1.67;1.67;;;1.50;99.90;;;;;;4896395;29;20227;-75
2021/04/06 05:44:41;;;;;;;1.40;1.40;;;1.40;99.90;;;;;;4896071;29;20740;-74
2021/04/06 05:47:15;;;;;;;1.60;1.60;;;1.50;99.90;;;;;;4896198;29;20255;-74
2021/04/06 05:49:42;;;;;;;1.30;1.30;;;1.50;99.90;;;;;;4896182;29;20665;-74
2021/04/06 05:52:09;;;;;;;1.70;1.70;;;1.40;99.90;;;;;;4896246;29;20267;-74
2021/04/06 05:54:37;;;;;;;1.47;1.47;;;1.40;99.90;;;;;;4896402;29;20282;-74
2021/04/06 05:57:05;;;;;;;1.37;1.37;;;1.40;99.90;;;;;;4895887;29;20207;-74
2021/04/06 05:59:32;;;;;;;1.30;1.30;;;1.40;99.90;;;;;;4896293;29;20259;-74
2021/04/06 06:01:59;;;;;;;1.50;1.50;;;1.60;99.90;;;;;;4896165;29;20255;-74
2021/04/06 06:04:26;;;;;;;1.20;1.20;;;1.50;99.90;;;;;;4896198;29;20207;-74
2021/04/06 06:06:53;;;;;;;1.30;1.30;;;1.70;99.90;;;;;;4895966;29;20283;-74
2021/04/06 06:09:30;;;;;;;1.77;1.77;;;1.80;99.90;;;;;;4896016;29;20214;-74
2021/04/06 06:12:01;;;;;;;1.40;1.40;;;1.80;99.90;;;;;;4895973;29;20234;-74
2021/04/06 06:14:30;;;;;;;1.13;1.13;;;1.80;99.90;;;;;;4896170;29;20215;-74
2021/04/06 06:16:57;;;;;;;1.50;1.50;;;1.80;99.90;;;;;;4896168;29;20203;-74
2021/04/06 06:19:32;;;;;;;1.63;1.63;;;1.70;99.90;;;;;;4895986;29;20267;-74
2021/04/06 06:22:11;;;;;;;1.20;1.20;;;1.80;99.90;;;;;;4895918;29;20306;-75
2021/04/06 06:24:40;;;;;;;1.30;1.30;;;2.00;99.90;;;;;;4896047;29;20211;-74
2021/04/06 06:27:28;;;;;;;1.23;1.23;;;2.30;99.90;;;;;;4896232;29;20208;-75
2021/04/06 06:29:55;;;;;;;1.87;1.87;;;2.40;99.90;;;;;;4899665;29;20242;-74
2021/04/06 06:32:23;;;;;;;1.10;1.10;;;2.50;99.90;;;;;;4899357;29;20233;-74
2021/04/06 06:34:51;;;;;;;1.33;1.33;;;2.70;99.90;;;;;;4899216;29;20669;-75
2021/04/06 06:37:37;;;;;;;1.50;1.50;;;2.60;99.90;;;;;;4899624;29;20576;-75
2021/04/06 06:40:06;;;;;;;1.40;1.40;;;3.10;99.90;;;;;;4899513;29;20684;-75
2021/04/06 06:42:36;;;;;;;1.37;1.37;;;2.70;99.90;;;;;;4899360;29;20278;-75
2021/04/06 06:45:05;;;;;;;1.27;1.27;;;2.70;99.90;;;;;;4899075;29;20223;-75
2021/04/06 06:47:32;;;;;;;1.40;1.40;;;2.50;99.90;;;;;;4899455;29;20645;-74
2021/04/06 06:50:09;;;;;;;1.20;1.20;;;2.50;99.90;;;;;;4899639;29;20211;-75
2021/04/06 06:52:37;;;;;;;1.63;1.63;;;2.40;99.90;;;;;;4899248;29;20223;-75
2021/04/06 06:55:18;;;;;;;1.33;1.33;;;2.70;99.90;;;;;;4898977;29;20223;-75
2021/04/06 06:57:48;;;;;;;1.20;1.20;;;2.80;99.90;;;;;;4899330;29;20207;-75
2021/04/06 07:00:17;;;;;;;1.30;1.30;;;3.10;99.90;;;;;;4899053;29;20207;-75
2021/04/06 07:02:44;;;;;;;1.30;1.30;;;3.20;99.90;;;;;;4899297;29;20583;-75
2021/04/06 07:05:21;;;;;;;1.37;1.37;;;3.30;99.90;;;;;;4898868;29;20207;-75
2021/04/06 07:08:00;;;;;;;1.30;1.30;;;3.20;99.90;;;;;;4898932;29;20215;-75
2021/04/06 07:10:29;;;;;;;1.20;1.20;;;3.30;99.90;;;;;;4898990;29;20207;-75
2021/04/06 07:13:07;;;;;;;1.17;1.17;;;3.10;99.90;;;;;;4898954;29;20634;-75
2021/04/06 07:15:41;;;;;;;1.13;1.13;;;3.00;99.90;;;;;;4898612;29;20215;-75
2021/04/06 07:18:12;;;;;;;1.60;1.60;;;2.90;99.90;;;;;;4898623;29;20212;-75
2021/04/06 07:20:41;;;;;;;1.60;1.60;;;2.80;99.90;;;;;;4899009;29;20228;-75
2021/04/06 07:23:12;;;;;;;1.20;1.20;;;2.50;99.90;;;;;;4898632;29;20613;-75
2021/04/06 07:25:42;;;;;;;1.37;1.37;;;2.30;99.90;;;;;;4898722;29;20211;-75
2021/04/06 07:28:11;;;;;;;1.60;1.60;;;2.30;99.90;;;;;;4898741;29;20250;-74
2021/04/06 07:30:38;;;;;;;1.53;1.53;;;2.30;99.90;;;;;;4898592;29;20235;-75
2021/04/06 07:33:07;;;;;;;1.53;1.53;;;2.40;99.90;;;;;;4898727;29;20280;-75
2021/04/06 07:35:38;;;;;;;1.53;1.53;;;2.40;99.90;;;;;;4898452;29;20238;-75
2021/04/06 07:38:04;;;;;;;1.40;1.40;;;2.40;99.90;;;;;;4898404;29;20611;-75
2021/04/06 07:40:34;;;;;;;1.30;1.30;;;2.20;99.90;;;;;;4897220;29;20223;-75
2021/04/06 07:43:04;;;;;;;1.40;1.40;;;2.20;99.90;;;;;;4898373;29;20306;-75
2021/04/06 07:45:42;;;;;;;1.40;1.40;;;2.40;99.90;;;;;;4898557;29;20211;-74
2021/04/06 07:48:32;;;;;;;1.47;1.47;;;2.90;99.90;;;;;;4898306;29;20207;-75
2021/04/06 07:51:15;;;;;;;1.17;1.17;;;2.70;99.90;;;;;;4897930;29;20235;-75
2021/04/06 07:54:04;;;;;;;1.50;1.50;;;3.00;99.90;;;;;;4897896;29;20365;-75
2021/04/06 07:56:52;;;;;;;1.50;1.50;;;2.70;99.90;;;;;;4897865;29;20204;-75
2021/04/06 07:59:42;;;;;;;1.60;1.60;;;2.60;99.90;;;;;;4897892;29;20732;-74
2021/04/06 08:02:33;;;;;;;1.53;1.53;;;2.60;99.90;;;;;;4897863;29;20251;-75
2021/04/06 08:05:06;;;;;;;1.30;1.30;;;2.70;99.90;;;;;;4897809;29;20468;-74
2021/04/06 08:07:35;;;;;;;1.33;1.33;;;2.60;99.90;;;;;;4898104;29;20286;-75
2021/04/06 08:10:33;;;;;;;1.40;1.40;;;2.80;99.90;;;;;;4897705;29;20240;-74
2021/04/06 08:13:01;;;;;;;1.20;1.20;;;3.20;99.90;;;;;;4898142;29;20239;-74
2021/04/06 08:15:32;;;;;;;1.40;1.40;;;3.40;99.90;;;;;;4897921;29;20208;-74
2021/04/06 08:17:59;;;;;;;1.40;1.40;;;3.40;99.90;;;;;;4897817;29;20215;-74
2021/04/06 08:20:31;;;;;;;1.40;1.40;;;3.50;99.90;;;;;;4897541;29;20732;-74
2021/04/06 08:23:00;;;;;;;1.20;1.20;;;3.50;99.90;;;;;;4897633;29;20550;-74
2021/04/06 08:25:48;;;;;;;1.30;1.30;;;3.70;99.90;;;;;;4897570;29;20211;-74
2021/04/06 08:28:39;;;;;;;1.20;1.20;;;3.60;99.90;;;;;;4897604;29;20211;-74
2021/04/06 08:31:28;;;;;;;1.30;1.30;;;3.40;99.90;;;;;;4897387;29;20227;-74
2021/04/06 08:34:10;;;;;;;1.47;1.47;;;3.50;99.90;;;;;;4897563;29;20287;-74
2021/04/06 08:36:37;;;;;;;1.60;1.60;;;3.50;99.90;;;;;;4897283;29;20266;-75
2021/04/06 08:39:04;;;;;;;1.40;1.40;;;3.50;99.90;;;;;;4897872;29;20725;-75
2021/04/06 08:41:35;;;;;;;1.40;1.40;;;3.60;99.90;;;;;;4897356;29;20227;-75
2021/04/06 08:44:09;;;;;;;1.23;1.23;;;3.70;99.90;;;;;;4897597;29;20231;-76
2021/04/06 08:46:47;;;;;;;1.40;1.40;;;3.80;99.90;;;;;;4897570;29;20211;-75
2021/04/06 08:49:20;;;;;;;1.23;1.23;;;3.70;99.90;;;;;;4897777;29;20207;-75
2021/04/06 08:51:50;;;;;;;1.50;1.50;;;3.50;99.90;;;;;;4897019;29;20232;-75
2021/04/06 08:54:19;;;;;;;1.57;1.57;;;3.30;99.90;;;;;;4897284;29;20727;-75
2021/04/06 08:56:49;;;;;;;1.20;1.20;;;3.40;99.90;;;;;;4897070;29;20211;-75
2021/04/06 08:59:19;;;;;;;1.27;1.27;;;3.50;99.90;;;;;;4896997;29;20554;-75
2021/04/06 09:01:47;;;;;;;1.10;1.10;;;3.70;99.90;;;;;;4896788;29;20227;-75
2021/04/06 09:04:16;;;;;;;1.33;1.33;;;3.50;99.90;;;;;;4897278;29;20211;-75
2021/04/06 09:06:44;;;;;;;1.30;1.30;;;3.70;99.90;;;;;;4896771;29;20266;-75
2021/04/06 09:09:13;;;;;;;1.53;1.53;;;3.40;99.90;;;;;;4896980;29;20211;-75
2021/04/06 09:11:42;;;;;;;1.30;1.30;;;3.60;99.90;;;;;;4896491;29;20303;-75
2021/04/06 09:14:10;;;;;;;1.43;1.43;;;3.80;99.90;;;;;;4896897;29;20238;-75
2021/04/06 09:16:37;;;;;;;1.50;1.50;;;3.70;99.90;;;;;;4896539;29;20203;-75
2021/04/06 09:19:08;;;;;;;1.30;1.30;;;3.50;99.90;;;;;;4896660;29;20271;-75
2021/04/06 09:21:36;;;;;;;1.40;1.40;;;3.70;99.90;;;;;;4896682;29;20733;-75
2021/04/06 09:24:05;;;;;;;1.40;1.40;;;3.80;99.90;;;;;;4896799;29;20211;-76
2021/04/06 09:26:33;;;;;;;1.40;1.40;;;4.00;99.90;;;;;;4896313;29;20211;-74
2021/04/06 09:29:03;;;;;;;1.40;1.40;;;4.00;99.90;;;;;;4896509;29;20207;-75
2021/04/06 09:31:32;;;;;;;1.20;1.20;;;4.20;99.90;;;;;;4896573;29;20223;-76
2021/04/06 09:34:15;;;;;;;1.33;1.33;;;4.40;99.90;;;;;;4896705;29;20318;-75
2021/04/06 09:36:44;;;;;;;1.20;1.20;;;4.60;99.90;;;;;;4896280;29;20654;-75
2021/04/06 09:39:12;;;;;;;1.50;1.50;;;4.80;99.90;;;;;;4896349;29;20253;-74
2021/04/06 09:41:41;;;;;;;1.23;1.23;;;4.70;99.90;;;;;;4896685;29;20713;-75
2021/04/06 09:44:12;;;;;;;1.67;1.67;;;4.40;99.90;;;;;;4896230;29;20251;-74
2021/04/06 09:46:43;;;;;;;1.57;1.57;;;4.30;99.90;;;;;;4896166;29;20211;-75
2021/04/06 09:49:11;;;;;;;1.30;1.30;;;4.20;99.90;;;;;;4896888;29;20206;-75
2021/04/06 09:51:57;;;;;;;1.27;1.27;;;4.20;99.90;;;;;;4896321;29;20227;-76
2021/04/06 09:54:29;;;;;;;1.60;1.60;;;4.20;99.90;;;;;;4896163;29;20243;-74
2021/04/06 09:56:57;;;;;;;1.47;1.47;;;4.20;99.90;;;;;;4896213;29;20211;-74
2021/04/06 09:59:25;;;;;;;1.47;1.47;;;4.20;99.90;;;;;;4896390;29;20211;-74
2021/04/06 10:01:57;;;;;;;1.60;1.60;;;4.10;99.90;;;;;;4896050;29;20231;-74
2021/04/06 10:04:36;;;;;;;1.77;1.77;;;4.30;99.90;;;;;;4900347;29;20208;-74
2021/04/06 10:07:11;;;;;;;1.30;1.30;;;4.40;99.90;;;;;;4900239;29;20620;-74
2021/04/06 10:09:40;;;;;;;1.50;1.50;;;4.50;99.90;;;;;;4900013;29;20206;-74
2021/04/06 10:12:08;;;;;;;1.33;1.33;;;4.70;99.90;;;;;;4899792;29;20239;-76
2021/04/06 10:14:35;;;;;;;1.20;1.20;;;4.80;99.90;;;;;;4899880;29;20255;-75
2021/04/06 10:17:04;;;;;;;1.33;1.33;;;5.00;99.90;;;;;;4899562;29;20271;-74
2021/04/06 10:19:33;;;;;;;1.53;1.53;;;5.10;99.90;;;;;;4899544;29;20271;-75
2021/04/06 10:22:03;;;;;;;1.00;1.00;;;5.10;99.90;;;;;;4899792;29;20330;-75
2021/04/06 10:24:33;;;;;;;1.40;1.40;;;4.90;99.90;;;;;;4902556;29;20207;-75
2021/04/06 10:27:16;;;;;;;1.30;1.30;;;4.90;99.90;;;;;;4901927;29;20242;-76
2021/04/06 10:29:44;;;;;;;1.60;1.60;;;5.00;99.90;;;;;;4899652;29;20275;-76
2021/04/06 10:32:24;;;;;;;1.30;1.30;;;5.40;99.90;;;;;;4899516;29;20287;-76
2021/04/06 10:35:01;;;;;;;1.33;1.33;;;5.50;99.90;;;;;;4900033;29;20219;-77
2021/04/06 10:37:40;;;;;;;1.50;1.50;;;5.40;99.90;;;;;;4906054;29;20676;-75
2021/04/06 10:40:24;;;;;;;1.27;1.27;;;5.30;99.90;;;;;;4900544;29;20211;-77
2021/04/06 10:42:52;;;;;;;1.30;1.30;;;5.20;99.90;;;;;;4899702;29;20629;-76
2021/04/06 10:45:21;;;;;;;1.20;1.20;;;5.00;99.90;;;;;;4899171;29;20211;-77
2021/04/06 10:47:52;;;;;;;1.50;1.50;;;4.90;99.90;;;;;;4899437;29;20287;-76
2021/04/06 10:50:28;;;;;;;1.77;1.77;;;4.90;99.90;;;;;;4899431;29;20218;-77
2021/04/06 10:52:55;;;;;;;1.60;1.60;;;4.90;99.90;;;;;;4899150;29;20279;-76
2021/04/06 10:55:33;;;;;;;1.60;1.60;;;5.00;99.90;;;;;;4899232;29;20286;-77
2021/04/06 10:58:00;;;;;;;1.50;1.50;;;4.90;99.90;;;;;;4899117;29;20842;-77
2021/04/06 11:00:29;;;;;;;1.47;1.47;;;4.80;99.90;;;;;;4899072;29;20619;-77
2021/04/06 11:03:14;;;;;;;1.40;1.40;;;4.80;99.90;;;;;;4898967;29;20208;-76
2021/04/06 11:05:42;;;;;;;1.37;1.37;;;4.90;99.90;;;;;;4898880;29;20211;-76
2021/04/06 11:08:26;;;;;;;1.20;1.20;;;4.90;99.90;;;;;;4899224;29;20627;-76
2021/04/06 11:10:55;;;;;;;1.20;1.20;;;5.30;99.90;;;;;;4898655;29;20665;-76
2021/04/06 11:13:23;;;;;;;1.40;1.40;;;5.30;99.90;;;;;;4898802;29;20319;-76
2021/04/06 11:15:50;;;;;;;1.50;1.50;;;5.40;99.90;;;;;;4898730;29;20259;-77
2021/04/06 11:18:18;;;;;;;1.50;1.50;;;5.40;99.70;;;;;;4899497;29;20211;-76
2021/04/06 11:20:45;;;;;;;1.23;1.23;;;5.40;99.50;;;;;;4899635;29;20234;-75
2021/04/06 11:23:16;;;;;;;1.23;1.23;;;5.90;99.90;;;;;;4899724;29;20207;-76
2021/04/06 11:25:43;;;;;;;1.20;1.20;;;6.30;98.50;;;;;;4899762;29;20640;-76
2021/04/06 11:28:10;;;;;;;1.10;1.10;;;6.50;97.10;;;;;;4899495;29;20216;-76
2021/04/06 11:30:37;;;;;;;1.10;1.10;;;6.30;96.10;;;;;;4898803;29;20287;-75
2021/04/06 11:33:05;;;;;;;1.30;1.30;;;6.10;97.70;;;;;;4898869;29;20645;-77
2021/04/06 11:35:33;;;;;;;1.57;1.57;;;5.90;97.50;;;;;;4898451;29;20255;-76
2021/04/06 11:38:01;;;;;;;1.20;1.20;;;5.50;98.60;;;;;;4898474;29;20242;-77
2021/04/06 11:40:28;;;;;;;1.40;1.40;;;5.30;98.10;;;;;;4898440;29;20262;-77
2021/04/06 11:42:56;;;;;;;1.53;1.53;;;5.50;98.10;;;;;;4898278;29;20204;-74
2021/04/06 11:45:24;;;;;;;1.43;1.43;;;5.50;98.30;;;;;;4898124;29;20264;-76
2021/04/06 11:47:51;;;;;;;1.40;1.40;;;5.10;97.80;;;;;;4898491;29;20215;-76
2021/04/06 11:50:19;;;;;;;1.30;1.30;;;5.20;98.00;;;;;;4898176;29;20203;-76
2021/04/06 11:52:48;;;;;;;1.37;1.37;;;5.30;97.70;;;;;;4898107;29;20637;-76
2021/04/06 11:55:18;;;;;;;1.30;1.30;;;5.30;97.30;;;;;;4897955;29;20217;-77
2021/04/06 11:57:46;;;;;;;1.20;1.20;;;5.40;99.10;;;;;;4898260;29;20282;-76
2021/04/06 12:00:16;;;;;;;1.40;1.40;;;5.10;99.90;;;;;;4898270;29;20353;-77
2021/04/06 12:02:43;;;;;;;1.27;1.27;;;4.90;99.90;;;;;;4898176;29;20572;-76
2021/04/06 12:05:12;;;;;;;1.57;1.57;;;4.70;99.90;;;;;;4897868;29;20283;-76
2021/04/06 12:07:39;;;;;;;1.60;1.60;;;4.50;99.90;;;;;;4898867;29;20223;-77
2021/04/06 12:10:09;;;;;;;1.70;1.70;;;4.40;99.90;;;;;;4899529;29;20203;-77
2021/04/06 12:12:37;;;;;;;1.67;1.67;;;4.40;99.90;;;;;;4899672;29;20259;-77
2021/04/06 12:15:05;;;;;;;1.53;1.53;;;4.40;99.90;;;;;;4899168;29;20630;-77
2021/04/06 12:17:32;;;;;;;1.40;1.40;;;4.50;99.90;;;;;;4898991;29;20212;-77
2021/04/06 12:19:59;;;;;;;1.30;1.30;;;5.00;99.90;;;;;;4898458;29;20242;-76
2021/04/06 12:22:26;;;;;;;1.50;1.50;;;5.30;99.90;;;;;;4898857;29;20223;-77
2021/04/06 12:24:52;;;;;;;1.40;1.40;;;5.00;99.90;;;;;;4898731;29;20267;-77
2021/04/06 12:27:20;;;;;;;1.10;1.10;;;5.30;99.90;;;;;;4899216;29;20203;-77
2021/04/06 12:29:47;;;;;;;1.30;1.30;;;5.50;99.90;;;;;;4898733;29;20207;-76
2021/04/06 12:32:17;;;;;;;1.23;1.23;;;5.30;99.90;;;;;;4897723;29;20629;-75
2021/04/06 12:34:43;;;;;;;1.20;1.20;;;5.50;99.90;;;;;;4899194;29;20282;-77
2021/04/06 12:37:10;;;;;;;1.33;1.33;;;5.70;99.90;;;;;;4899638;29;20215;-77
2021/04/06 12:39:57;;;;;;;1.30;1.30;;;5.70;99.90;;;;;;4897661;29;20298;-76
2021/04/06 12:42:25;;;;;;;1.00;1.00;;;6.20;99.90;;;;;;4897466;29;20603;-78
2021/04/06 12:44:52;;;;;;;1.20;1.20;;;6.30;99.90;;;;;;4897211;29;20744;-76
2021/04/06 12:47:19;;;;;;;1.10;1.10;;;6.50;99.90;;;;;;4897487;29;20211;-76
2021/04/06 12:49:48;;;;;;;1.00;1.00;;;6.80;99.90;;;;;;4897330;29;20633;-76
2021/04/06 12:52:16;;;;;;;1.20;1.20;;;6.80;99.90;;;;;;4897071;29;20235;-77
2021/04/06 12:54:43;;;;;;;1.20;1.20;;;6.70;99.90;;;;;;4897103;29;20231;-76
2021/04/06 12:57:10;;;;;;;1.10;1.10;;;7.00;99.30;;;;;;4897027;29;20294;-77
2021/04/06 12:59:38;;;;;;;1.30;1.30;;;6.90;99.00;;;;;;4896906;29;20259;-76
2021/04/06 13:02:07;;;;;;;1.10;1.10;;;6.60;98.80;;;;;;4896644;29;20239;-76
2021/04/06 13:04:33;;;;;;;1.30;1.30;;;6.70;98.40;;;;;;4897161;29;20203;-76
2021/04/06 13:07:01;;;;;;;1.00;1.00;;;7.00;97.90;;;;;;4896707;29;20207;-76
2021/04/06 13:09:28;;;;;;;1.23;1.23;;;7.30;96.60;;;;;;4896862;29;20625;-76
2021/04/06 13:11:55;;;;;;;1.10;1.10;;;7.70;95.10;;;;;;4896690;29;20234;-74
2021/04/06 13:14:22;;;;;;;1.20;1.20;;;7.60;94.20;;;;;;4896561;29;20279;-74
2021/04/06 13:16:50;;;;;;;1.07;1.07;;;7.30;94.10;;;;;;4896495;29;20227;-75
2021/04/06 13:19:17;;;;;;;1.30;1.30;;;7.10;94.30;;;;;;4896813;29;20235;-76
2021/04/06 13:21:44;;;;;;;1.20;1.20;;;6.50;96.10;;;;;;4897059;29;20223;-77
2021/04/06 13:24:12;;;;;;;1.20;1.20;;;5.30;99.90;;;;;;4896744;29;20270;-76
2021/04/06 13:26:39;;;;;;;1.50;1.50;;;4.20;99.90;;;;;;4896567;29;20215;-76
2021/04/06 13:29:06;;;;;;;1.37;1.37;;;3.30;99.90;;;;;;4896381;29;20211;-76
2021/04/06 13:31:33;;;;;;;1.40;1.40;;;3.20;99.90;;;;;;4897054;29;20227;-77
2021/04/06 13:34:02;;;;;;;1.50;1.50;;;2.60;99.90;;;;;;4896884;29;20243;-74
2021/04/06 13:36:29;;;;;;;1.30;1.30;;;2.50;99.90;;;;;;4896335;29;20301;-76
2021/04/06 13:38:56;;;;;;;1.40;1.40;;;2.50;99.90;;;;;;4896520;29;20263;-77
2021/04/06 13:41:22;;;;;;;1.33;1.33;;;2.40;99.90;;;;;;4896508;29;20228;-76
2021/04/06 13:43:50;;;;;;;1.60;1.60;;;2.50;99.90;;;;;;4896559;29;20687;-76
2021/04/06 13:46:17;;;;;;;1.57;1.57;;;2.80;99.90;;;;;;4896425;29;20212;-76
2021/04/06 13:48:44;;;;;;;1.50;1.50;;;2.80;99.90;;;;;;4896410;29;20211;-76
2021/04/06 13:51:12;;;;;;;1.80;1.80;;;3.10;99.90;;;;;;4897412;29;20258;-76
2021/04/06 13:53:39;;;;;;;1.43;1.43;;;3.50;99.90;;;;;;4896618;29;20219;-76
2021/04/06 13:56:06;;;;;;;1.63;1.63;;;3.70;99.90;;;;;;4897193;29;20219;-77
2021/04/06 13:58:33;;;;;;;1.53;1.53;;;3.60;99.90;;;;;;4897588;29;20211;-76
2021/04/06 14:01:01;;;;;;;1.33;1.33;;;3.90;99.90;;;;;;4897432;29;20260;-76
2021/04/06 14:03:28;;;;;;;1.70;1.70;;;3.80;99.90;;;;;;4897362;29;20574;-77
2021/04/06 14:05:55;;;;;;;1.20;1.20;;;4.00;99.90;;;;;;4897272;29;20548;-77
2021/04/06 14:08:23;;;;;;;1.47;1.47;;;4.30;99.90;;;;;;4897427;29;20263;-77
2021/04/06 14:10:50;;;;;;;1.60;1.60;;;4.20;99.90;;;;;;4897531;29;20785;-77
2021/04/06 14:13:17;;;;;;;1.40;1.40;;;4.40;99.90;;;;;;4897590;29;20279;-75
2021/04/06 14:15:45;;;;;;;1.40;1.40;;;4.60;99.90;;;;;;4896795;29;20621;-77
2021/04/06 14:18:13;;;;;;;1.57;1.57;;;4.50;99.90;;;;;;4896680;29;20203;-76
2021/04/06 14:20:43;;;;;;;1.30;1.30;;;4.30;99.90;;;;;;4896771;29;20227;-76
2021/04/06 14:23:12;;;;;;;1.40;1.40;;;4.50;99.90;;;;;;4896846;29;20199;-77
2021/04/06 14:25:40;;;;;;;1.50;1.50;;;4.40;99.90;;;;;;4896745;29;20647;-77
2021/04/06 14:28:11;;;;;;;1.10;1.10;;;4.30;99.90;;;;;;4896816;29;20666;-77
2021/04/06 14:30:42;;;;;;;1.40;1.40;;;4.30;99.90;;;;;;4896924;29;20452;-76
2021/04/06 14:33:10;;;;;;;1.10;1.10;;;4.40;99.90;;;;;;4897019;29;20227;-77
2021/04/06 14:35:38;;;;;;;1.30;1.30;;;4.50;99.90;;;;;;4897328;29;20211;-76
2021/04/06 14:38:05;;;;;;;1.30;1.30;;;4.70;99.90;;;;;;4896815;29;20503;-77
2021/04/06 14:40:34;;;;;;;1.40;1.40;;;4.70;99.90;;;;;;4896917;29;20227;-76
2021/04/06 14:43:11;;;;;;;1.47;1.47;;;4.80;99.90;;;;;;4896221;29;20212;-76
2021/04/06 14:45:39;;;;;;;1.30;1.30;;;4.90;99.90;;;;;;4898047;29;20258;-77
2021/04/06 14:48:26;;;;;;;1.30;1.30;;;5.10;99.90;;;;;;4897731;29;20234;-76
2021/04/06 14:50:53;;;;;;;1.23;1.23;;;5.10;99.90;;;;;;4903127;29;20226;-76
2021/04/06 14:53:21;;;;;;;1.40;1.40;;;5.30;99.90;;;;;;4904575;29;20223;-76
2021/04/06 14:55:48;;;;;;;1.20;1.20;;;5.40;99.90;;;;;;4904479;29;20279;-77
2021/04/06 14:58:17;;;;;;;1.40;1.40;;;5.50;99.90;;;;;;4901890;29;20203;-76
2021/04/06 15:00:44;;;;;;;1.40;1.40;;;5.20;99.90;;;;;;4900096;29;20227;-77
2021/04/06 15:03:21;;;;;;;1.40;1.40;;;5.00;99.90;;;;;;4899835;29;20263;-77
2021/04/06 15:05:48;;;;;;;1.40;1.40;;;4.80;99.90;;;;;;4899281;29;20211;-77
2021/04/06 15:08:24;;;;;;;1.40;1.40;;;4.70;99.90;;;;;;4899649;29;20258;-77
2021/04/06 15:10:54;;;;;;;1.40;1.40;;;4.90;99.90;;;;;;4899485;29;20272;-77
2021/04/06 15:13:22;;;;;;;1.20;1.20;;;4.90;99.90;;;;;;4898872;29;20744;-75
2021/04/06 15:15:49;;;;;;;1.30;1.30;;;4.90;99.90;;;;;;4899147;29;20212;-75
2021/04/06 15:18:16;;;;;;;1.13;1.13;;;4.90;99.90;;;;;;4899440;29;20203;-76
2021/04/06 15:20:43;;;;;;;1.30;1.30;;;4.80;99.90;;;;;;4898750;29;20287;-76
2021/04/06 15:23:23;;;;;;;1.30;1.30;;;4.60;99.90;;;;;;4899304;29;20230;-76
2021/04/06 15:25:51;;;;;;;1.80;1.80;;;4.10;99.90;;;;;;4898828;29;20211;-77
2021/04/06 15:28:18;;;;;;;1.20;1.20;;;3.90;99.90;;;;;;4899625;29;20203;-75
2021/04/06 15:30:47;;;;;;;1.27;1.27;;;3.80;99.90;;;;;;4898646;29;20224;-75
2021/04/06 15:33:14;;;;;;;1.47;1.47;;;3.70;99.90;;;;;;4898480;29;20245;-76
2021/04/06 15:35:43;;;;;;;1.50;1.50;;;3.60;99.90;;;;;;4898446;29;20680;-76
2021/04/06 15:38:13;;;;;;;1.50;1.50;;;3.40;99.90;;;;;;4898418;29;20579;-76
2021/04/06 15:40:41;;;;;;;1.47;1.47;;;3.40;99.90;;;;;;4899066;29;20287;-76
2021/04/06 15:43:09;;;;;;;1.47;1.47;;;3.40;99.90;;;;;;4898724;29;20211;-77
2021/04/06 15:45:36;;;;;;;1.50;1.50;;;3.60;99.90;;;;;;4898092;29;20700;-76
2021/04/06 15:48:05;;;;;;;1.40;1.40;;;3.40;99.90;;;;;;4898479;29;20204;-76
2021/04/06 15:50:35;;;;;;;1.60;1.60;;;3.50;99.90;;;;;;4898096;29;20743;-76
2021/04/06 15:53:11;;;;;;;1.50;1.50;;;3.40;99.90;;;;;;4898286;29;20207;-76
2021/04/06 15:55:39;;;;;;;1.50;1.50;;;3.80;99.90;;;;;;4898563;29;20211;-76
2021/04/06 15:58:06;;;;;;;1.27;1.27;;;3.70;99.90;;;;;;4898590;29;20215;-76
2021/04/06 16:00:35;;;;;;;1.57;1.57;;;3.90;99.90;;;;;;4896864;29;20717;-76
2021/04/06 16:03:05;;;;;;;1.37;1.37;;;3.80;99.90;;;;;;4897922;29;20203;-76
2021/04/06 16:05:34;;;;;;;1.30;1.30;;;3.70;99.90;;;;;;4897507;29;20619;-76
2021/04/06 16:08:01;;;;;;;1.37;1.37;;;3.50;99.90;;;;;;4898030;29;20299;-76
2021/04/06 16:10:28;;;;;;;1.63;1.63;;;3.50;99.90;;;;;;4897467;29;20211;-76
2021/04/06 16:12:57;;;;;;;1.60;1.60;;;3.70;99.90;;;;;;4897702;29;20208;-76
2021/04/06 16:15:26;;;;;;;1.43;1.43;;;3.70;99.90;;;;;;4897318;29;20302;-76
2021/04/06 16:17:54;;;;;;;1.30;1.30;;;3.70;99.90;;;;;;4897534;29;20207;-74
2021/04/06 16:20:24;;;;;;;1.40;1.40;;;3.40;99.90;;;;;;4897587;29;20215;-75
2021/04/06 16:22:55;;;;;;;1.70;1.70;;;3.40;99.90;;;;;;4897905;29;20215;-76
2021/04/06 16:25:22;;;;;;;1.40;1.40;;;3.30;99.90;;;;;;4898051;29;20195;-76
2021/04/06 16:27:50;;;;;;;1.50;1.50;;;3.20;99.90;;;;;;4897915;29;20207;-74
2021/04/06 16:30:20;;;;;;;1.40;1.40;;;3.40;99.90;;;;;;4897351;29;20255;-76
2021/04/06 16:32:48;;;;;;;1.43;1.43;;;3.30;99.90;;;;;;4897883;29;20211;-76
2021/04/06 16:35:15;;;;;;;1.40;1.40;;;3.30;99.90;;;;;;4897607;29;20223;-76
2021/04/06 16:37:43;;;;;;;1.47;1.47;;;3.30;99.90;;;;;;4897313;29;20215;-76
2021/04/06 16:40:11;;;;;;;1.47;1.47;;;3.40;99.90;;;;;;4897218;29;20212;-76
2021/04/06 16:42:38;;;;;;;1.20;1.20;;;3.50;99.90;;;;;;4897267;29;20210;-76
2021/04/06 16:45:06;;;;;;;1.60;1.60;;;3.50;99.90;;;;;;4897029;29;20211;-76
2021/04/06 16:47:33;;;;;;;1.50;1.50;;;3.40;99.90;;;;;;4897421;29;20586;-75
2021/04/06 16:50:00;;;;;;;1.40;1.40;;;3.40;99.90;;;;;;4897318;29;20215;-76
2021/04/06 16:52:27;;;;;;;1.47;1.47;;;3.30;99.90;;;;;;4897543;29;20457;-76
2021/04/06 16:54:55;;;;;;;1.40;1.40;;;3.40;99.90;;;;;;4896707;29;20223;-76
2021/04/06 16:57:22;;;;;;;1.27;1.27;;;3.40;99.90;;;;;;4896907;29;20215;-76
2021/04/06 16:59:49;;;;;;;1.20;1.20;;;3.30;99.90;;;;;;4897047;29;20275;-76
2021/04/06 17:02:16;;;;;;;1.40;1.40;;;3.40;99.90;;;;;;4897153;29;20239;-76
2021/04/06 17:04:43;;;;;;;1.40;1.40;;;3.80;99.90;;;;;;4896753;29;20350;-76
2021/04/06 17:07:10;;;;;;;1.70;1.70;;;3.50;99.90;;;;;;4896916;29;20207;-76
2021/04/06 17:09:37;;;;;;;1.30;1.30;;;3.60;99.90;;;;;;4897035;29;20255;-77
2021/04/06 17:12:05;;;;;;;1.40;1.40;;;3.50;99.90;;;;;;4896731;29;20671;-77
2021/04/06 17:14:32;;;;;;;1.47;1.47;;;3.50;99.90;;;;;;4897075;29;20231;-77
2021/04/06 17:16:59;;;;;;;1.70;1.70;;;3.30;99.90;;;;;;4896825;29;20744;-77
2021/04/06 17:19:26;;;;;;;1.10;1.10;;;3.30;99.90;;;;;;4897539;29;20211;-77
2021/04/06 17:21:53;;;;;;;1.40;1.40;;;3.50;99.90;;;;;;4897370;29;20227;-77